Time;durP1;ratioP1;P1;durP2;ratioP2;P2;SDS_P1;SDS_P2;PMS_P1;PMS_P2;Temp;Humidity;BMP_temperature;BMP_pressure;BME280_temperature;BME280_humidity;BME280_pressure;Samples;Min_cycle;Max_cycle;Signal;HPM_P1;HPM_P2
2022/01/23 00:01:50;;;;;;;61.42;23.13;;;;;;;;;;5023338;28;20028;-71
2022/01/23 00:04:17;;;;;;;54.55;21.67;;;;;;;;;;5022575;28;20045;-70
2022/01/23 00:06:45;;;;;;;53.35;22.50;;;;;;;;;;5030594;28;20072;-71
2022/01/23 00:09:11;;;;;;;54.80;21.73;;;;;;;;;;5030400;28;20400;-70
2022/01/23 00:11:43;;;;;;;52.03;21.48;;;;;;;;;;5012768;28;20037;-71
2022/01/23 00:19:18;;;;;;;45.78;18.75;;;;;;;;;;5019745;28;20469;-70
2022/01/23 00:21:45;;;;;;;42.33;18.42;;;;;;;;;;5030272;28;20522;-71
2022/01/23 00:32:05;;;;;;;44.55;18.38;;;;;;;;;;5032713;28;20068;-71
2022/01/23 00:34:30;;;;;;;44.30;18.83;;;;;;;;;;5029416;28;20037;-70
2022/01/23 00:36:56;;;;;;;49.28;20.00;;;;;;;;;;5029611;28;20038;-70
2022/01/23 00:39:21;;;;;;;40.83;16.95;;;;;;;;;;5035854;28;20025;-70
2022/01/23 00:41:46;;;;;;;43.53;18.38;;;;;;;;;;5031439;28;20065;-71
2022/01/23 00:44:12;;;;;;;39.08;17.88;;;;;;;;;;5023601;28;20119;-71
2022/01/23 00:46:39;;;;;;;39.42;17.38;;;;;;;;;;5023430;28;20030;-71
2022/01/23 00:51:37;;;;;;;38.40;17.15;;;;;;;;;;5019587;28;20117;-70
2022/01/23 00:54:08;;;;;;;37.95;16.88;;;;;;;;;;5026678;28;20033;-70
2022/01/23 00:56:34;;;;;;;37.55;15.18;;;;;;;;;;5027812;28;20108;-71
2022/01/23 00:59:00;;;;;;;36.78;16.38;;;;;;;;;;5020723;28;20463;-71
2022/01/23 01:01:26;;;;;;;39.72;16.70;;;;;;;;;;5011859;28;20034;-68
2022/01/23 01:03:51;;;;;;;38.55;16.60;;;;;;;;;;5036500;28;20034;-70
2022/01/23 01:06:17;;;;;;;38.83;16.73;;;;;;;;;;5019954;28;20333;-70
2022/01/23 01:08:43;;;;;;;38.33;16.13;;;;;;;;;;5018368;28;20065;-70
2022/01/23 01:33:44;;;;;;;43.10;17.35;;;;;;;;;;5010547;28;20115;-70
2022/01/23 01:35:42;;;;;;;39.70;16.98;;;;;;;;;;5005593;28;20408;-70
2022/01/23 01:38:07;;;;;;;36.08;16.58;;;;;;;;;;5012730;28;20029;-71
2022/01/23 01:40:33;;;;;;;38.13;16.58;;;;;;;;;;5023693;28;20034;-70
2022/01/23 01:42:59;;;;;;;41.78;17.27;;;;;;;;;;5029361;28;20037;-70
2022/01/23 01:45:27;;;;;;;39.58;18.08;;;;;;;;;;5029615;28;20116;-70
2022/01/23 01:47:59;;;;;;;42.25;17.98;;;;;;;;;;5022601;28;20029;-71
2022/01/23 01:50:24;;;;;;;39.42;17.38;;;;;;;;;;5011515;28;20022;-70
2022/01/23 01:52:50;;;;;;;38.45;16.95;;;;;;;;;;5016730;28;20042;-70
2022/01/23 01:55:23;;;;;;;45.78;17.42;;;;;;;;;;5022688;28;20125;-70
2022/01/23 01:57:53;;;;;;;42.63;18.48;;;;;;;;;;5025431;28;20041;-70
2022/01/23 02:10:52;;;;;;;45.00;19.80;;;;;;;;;;5014432;28;20883;-72
2022/01/23 02:13:22;;;;;;;40.92;18.27;;;;;;;;;;5048726;28;20468;-71
2022/01/23 02:24:23;;;;;;;50.63;19.52;;;;;;;;;;5015936;28;20052;-71
2022/01/23 02:51:58;;;;;;;43.10;18.35;;;;;;;;;;5022919;28;20044;-70
2022/01/23 02:54:51;;;;;;;;;;;;;;;;;;5017767;28;20524;-70
2022/01/23 02:57:22;;;;;;;47.95;17.67;;;;;;;;;;5014720;28;19913;-71
2022/01/23 02:59:49;;;;;;;48.20;19.63;;;;;;;;;;5041568;28;20029;-70
2022/01/23 03:02:33;;;;;;;40.72;17.25;;;;;;;;;;5028849;28;20069;-71
2022/01/23 03:05:01;;;;;;;49.58;18.65;;;;;;;;;;5029819;28;20384;-70
2022/01/23 03:10:18;;;;;;;41.97;18.13;;;;;;;;;;5028100;28;20036;-71
2022/01/23 03:13:38;;;;;;;46.63;18.67;;;;;;;;;;5029924;28;20425;-71
2022/01/23 03:29:19;;;;;;;45.22;17.52;;;;;;;;;;5014754;28;20049;-70
2022/01/23 03:34:17;;;;;;;46.05;16.33;;;;;;;;;;5029639;28;20091;-71
2022/01/23 03:36:43;;;;;;;43.65;17.40;;;;;;;;;;5019730;28;20135;-70
2022/01/23 03:39:09;;;;;;;48.33;17.63;;;;;;;;;;5017109;28;20496;-71
2022/01/23 03:41:37;;;;;;;42.83;16.58;;;;;;;;;;5030227;28;20108;-70
2022/01/23 03:44:05;;;;;;;41.83;17.45;;;;;;;;;;5018184;28;20108;-70
2022/01/23 03:47:01;;;;;;;42.63;17.15;;;;;;;;;;5028148;28;20096;-70
2022/01/23 03:49:31;;;;;;;42.55;16.25;;;;;;;;;;5023995;28;20112;-70
2022/01/23 03:52:05;;;;;;;40.50;15.68;;;;;;;;;;5024650;28;20037;-70
2022/01/23 03:54:32;;;;;;;44.67;17.33;;;;;;;;;;5033099;28;20029;-70
2022/01/23 03:56:59;;;;;;;40.88;15.55;;;;;;;;;;5013522;28;20030;-70
2022/01/23 03:59:25;;;;;;;44.85;17.15;;;;;;;;;;5012071;28;20057;-71
2022/01/23 04:01:51;;;;;;;45.08;16.92;;;;;;;;;;5015030;28;20037;-70
2022/01/23 04:04:37;;;;;;;44.47;17.65;;;;;;;;;;5012890;28;20460;-70
2022/01/23 04:07:03;;;;;;;41.45;16.55;;;;;;;;;;5012258;28;20038;-70
2022/01/23 04:09:28;;;;;;;38.30;16.40;;;;;;;;;;5013600;28;20057;-70
2022/01/23 04:11:54;;;;;;;46.00;17.63;;;;;;;;;;5020483;28;20134;-70
2022/01/23 04:14:22;;;;;;;49.83;18.58;;;;;;;;;;5035332;28;20527;-70
2022/01/23 04:46:52;;;;;;;53.67;18.90;;;;;;;;;;5029029;28;20456;-70
2022/01/23 04:59:52;;;;;;;48.00;18.85;;;;;;;;;;5021476;28;20032;-70
2022/01/23 05:05:01;;;;;;;53.70;20.92;;;;;;;;;;5030249;28;20045;-70
2022/01/23 05:07:29;;;;;;;51.38;20.67;;;;;;;;;;5032162;28;20033;-70
2022/01/23 05:09:54;;;;;;;53.72;20.65;;;;;;;;;;5032050;28;20126;-70
2022/01/23 05:12:25;;;;;;;52.03;21.42;;;;;;;;;;5019548;28;20064;-70
2022/01/23 05:14:51;;;;;;;53.83;20.67;;;;;;;;;;5036928;28;20063;-70
2022/01/23 05:17:18;;;;;;;53.92;21.10;;;;;;;;;;5032690;28;20539;-70
2022/01/23 05:19:44;;;;;;;57.70;20.88;;;;;;;;;;5015684;28;20095;-70
2022/01/23 05:24:40;;;;;;;59.88;21.98;;;;;;;;;;5027832;28;20028;-70
2022/01/23 05:27:10;;;;;;;62.40;21.48;;;;;;;;;;5012099;28;20121;-71
2022/01/23 05:29:36;;;;;;;61.22;22.52;;;;;;;;;;5011665;28;20048;-70
2022/01/23 05:32:03;;;;;;;59.60;21.05;;;;;;;;;;5013796;28;20167;-70
2022/01/23 05:34:28;;;;;;;60.65;21.73;;;;;;;;;;5030513;28;20513;-70
2022/01/23 05:36:54;;;;;;;68.28;22.33;;;;;;;;;;5020253;28;20037;-70
2022/01/23 05:39:23;;;;;;;63.85;23.13;;;;;;;;;;5031552;28;20386;-70
2022/01/23 05:42:04;;;;;;;72.10;22.85;;;;;;;;;;5031258;28;20043;-70
2022/01/23 05:44:29;;;;;;;73.85;23.38;;;;;;;;;;5031884;28;20072;-70
2022/01/23 05:46:55;;;;;;;74.68;23.77;;;;;;;;;;5046773;28;20045;-70
2022/01/23 05:49:21;;;;;;;69.45;22.95;;;;;;;;;;5051431;28;20390;-70
2022/01/23 05:51:46;;;;;;;70.35;23.65;;;;;;;;;;5039302;28;20060;-70
2022/01/23 05:54:11;;;;;;;78.38;24.92;;;;;;;;;;5037434;28;20033;-69
2022/01/23 05:56:37;;;;;;;71.28;23.33;;;;;;;;;;5040776;28;20445;-70
2022/01/23 05:59:02;;;;;;;68.03;22.67;;;;;;;;;;5050103;28;20033;-70
2022/01/23 06:01:28;;;;;;;68.35;23.65;;;;;;;;;;5045049;28;20416;-71
2022/01/23 06:03:53;;;;;;;75.53;24.05;;;;;;;;;;5034675;28;20040;-69
2022/01/23 06:06:19;;;;;;;70.57;22.88;;;;;;;;;;5045357;28;20079;-70
2022/01/23 06:08:44;;;;;;;72.25;23.00;;;;;;;;;;5038802;28;20392;-69
2022/01/23 06:11:10;;;;;;;72.00;22.55;;;;;;;;;;5037898;28;20120;-70
2022/01/23 06:13:35;;;;;;;67.65;23.55;;;;;;;;;;5029978;28;20106;-70
2022/01/23 06:16:01;;;;;;;60.70;20.48;;;;;;;;;;5045718;28;20605;-69
2022/01/23 06:18:27;;;;;;;72.70;22.77;;;;;;;;;;5050021;28;20036;-70
2022/01/23 06:20:53;;;;;;;61.78;20.38;;;;;;;;;;5029397;28;20459;-70
2022/01/23 06:23:18;;;;;;;69.88;22.25;;;;;;;;;;5017842;28;20034;-70
2022/01/23 06:25:46;;;;;;;59.70;21.02;;;;;;;;;;5034638;28;20056;-69
2022/01/23 06:28:29;;;;;;;62.83;21.45;;;;;;;;;;5031105;28;20057;-69
2022/01/23 06:30:54;;;;;;;69.13;21.98;;;;;;;;;;5030309;28;20442;-68
2022/01/23 06:33:20;;;;;;;67.03;22.90;;;;;;;;;;5043959;28;20133;-68
2022/01/23 06:35:45;;;;;;;75.18;23.20;;;;;;;;;;5013297;28;20546;-69
2022/01/23 06:38:11;;;;;;;78.60;23.77;;;;;;;;;;5029243;28;20446;-70
2022/01/23 06:40:36;;;;;;;72.25;22.90;;;;;;;;;;5034354;28;20105;-69
2022/01/23 06:43:01;;;;;;;71.35;23.77;;;;;;;;;;5031999;28;20679;-69
2022/01/23 06:45:27;;;;;;;71.75;22.63;;;;;;;;;;5032393;28;20079;-69
2022/01/23 06:47:52;;;;;;;67.20;22.63;;;;;;;;;;5033441;28;20033;-68
2022/01/23 06:50:18;;;;;;;76.20;24.08;;;;;;;;;;5032464;28;20076;-68
2022/01/23 06:52:43;;;;;;;72.65;23.42;;;;;;;;;;5026033;28;20034;-68
2022/01/23 06:55:09;;;;;;;67.00;24.13;;;;;;;;;;5032903;28;20040;-69
2022/01/23 06:57:35;;;;;;;79.88;25.13;;;;;;;;;;5034244;28;20090;-69
2022/01/23 07:00:01;;;;;;;73.78;23.42;;;;;;;;;;5025646;28;20037;-67
2022/01/23 07:02:26;;;;;;;70.35;22.63;;;;;;;;;;5014570;28;20523;-67
2022/01/23 07:04:51;;;;;;;79.15;24.77;;;;;;;;;;5030052;28;20029;-68
2022/01/23 07:07:17;;;;;;;72.32;24.25;;;;;;;;;;5043133;28;20033;-68
2022/01/23 07:09:43;;;;;;;70.03;23.63;;;;;;;;;;5023534;28;20427;-69
2022/01/23 07:12:09;;;;;;;69.53;23.95;;;;;;;;;;5019096;28;20106;-69
2022/01/23 07:14:34;;;;;;;69.70;23.42;;;;;;;;;;5033224;28;20061;-68
2022/01/23 07:17:00;;;;;;;76.00;23.23;;;;;;;;;;5039435;28;20509;-68
2022/01/23 07:19:25;;;;;;;69.95;23.48;;;;;;;;;;5045127;28;20025;-68
2022/01/23 07:21:50;;;;;;;70.20;23.33;;;;;;;;;;5052790;28;20484;-68
2022/01/23 07:24:16;;;;;;;70.70;23.52;;;;;;;;;;5051997;28;20037;-67
2022/01/23 07:26:41;;;;;;;74.50;24.20;;;;;;;;;;5046101;28;20043;-68
2022/01/23 07:29:07;;;;;;;63.03;21.50;;;;;;;;;;5051591;28;20036;-68
2022/01/23 07:34:01;;;;;;;72.63;24.30;;;;;;;;;;5052086;28;20394;-70
2022/01/23 07:36:27;;;;;;;69.50;23.83;;;;;;;;;;5037478;28;20044;-69
2022/01/23 07:38:53;;;;;;;68.88;23.58;;;;;;;;;;5035959;28;20119;-68
2022/01/23 07:41:18;;;;;;;69.82;23.95;;;;;;;;;;5053055;28;20037;-67
2022/01/23 07:43:48;;;;;;;63.78;23.58;;;;;;;;;;5043223;28;20177;-68
2022/01/23 07:46:13;;;;;;;61.30;22.30;;;;;;;;;;5033272;28;20026;-68
2022/01/23 07:48:39;;;;;;;58.13;21.30;;;;;;;;;;5033325;28;20049;-68
2022/01/23 07:51:04;;;;;;;57.35;21.48;;;;;;;;;;5051354;28;20483;-69
2022/01/23 07:53:29;;;;;;;57.65;21.00;;;;;;;;;;5030509;28;20060;-69
2022/01/23 07:55:55;;;;;;;56.55;21.25;;;;;;;;;;5011554;28;20117;-68
2022/01/23 07:58:20;;;;;;;66.85;23.65;;;;;;;;;;5029860;28;20087;-68
2022/01/23 08:00:47;;;;;;;60.92;23.35;;;;;;;;;;5032516;28;20029;-68
2022/01/23 08:03:13;;;;;;;58.00;22.50;;;;;;;;;;5032553;28;20029;-68
2022/01/23 08:05:39;;;;;;;64.57;24.25;;;;;;;;;;5032898;28;20082;-68
2022/01/23 08:08:05;;;;;;;66.07;24.00;;;;;;;;;;5027783;28;20383;-68
2022/01/23 08:10:31;;;;;;;62.05;24.40;;;;;;;;;;5028884;28;20038;-68
2022/01/23 08:12:56;;;;;;;68.15;23.73;;;;;;;;;;5020711;28;20098;-69
2022/01/23 08:15:22;;;;;;;61.75;23.17;;;;;;;;;;5048090;28;20060;-68
2022/01/23 08:17:47;;;;;;;59.38;23.50;;;;;;;;;;5033575;28;20037;-68
2022/01/23 08:20:13;;;;;;;62.15;23.40;;;;;;;;;;5046845;28;20124;-69
2022/01/23 08:22:38;;;;;;;63.75;22.70;;;;;;;;;;5049055;28;20041;-68
2022/01/23 08:25:05;;;;;;;68.38;24.27;;;;;;;;;;5031866;28;20043;-68
2022/01/23 08:27:31;;;;;;;64.60;23.08;;;;;;;;;;5024324;28;20128;-68
2022/01/23 08:29:58;;;;;;;66.13;24.63;;;;;;;;;;5051026;28;20436;-68
2022/01/23 08:32:24;;;;;;;72.95;24.33;;;;;;;;;;5034595;28;20042;-68
2022/01/23 08:34:50;;;;;;;73.38;25.05;;;;;;;;;;5028998;28;20029;-68
2022/01/23 08:37:15;;;;;;;69.22;24.33;;;;;;;;;;5052107;28;20075;-68
2022/01/23 08:39:41;;;;;;;73.28;24.95;;;;;;;;;;5037787;28;20075;-69
2022/01/23 08:42:11;;;;;;;63.78;24.92;;;;;;;;;;5024418;28;20026;-68
2022/01/23 08:44:37;;;;;;;68.93;23.80;;;;;;;;;;5011653;28;20088;-69
2022/01/23 08:47:04;;;;;;;76.55;24.77;;;;;;;;;;5028978;28;20045;-68
2022/01/23 08:49:30;;;;;;;60.88;23.13;;;;;;;;;;5039877;28;20083;-67
2022/01/23 08:51:57;;;;;;;61.72;23.48;;;;;;;;;;5041239;28;20029;-68
2022/01/23 08:54:24;;;;;;;63.53;23.02;;;;;;;;;;5032305;28;20096;-68
2022/01/23 08:56:50;;;;;;;61.60;22.83;;;;;;;;;;5030869;28;20427;-69
2022/01/23 08:59:15;;;;;;;70.93;23.23;;;;;;;;;;5039090;28;20479;-68
2022/01/23 09:01:41;;;;;;;60.70;22.27;;;;;;;;;;5050990;28;20033;-68
2022/01/23 09:04:07;;;;;;;63.58;22.83;;;;;;;;;;5043315;28;20037;-69
2022/01/23 09:06:33;;;;;;;63.70;23.35;;;;;;;;;;5051918;28;20036;-69
2022/01/23 09:09:00;;;;;;;60.30;23.60;;;;;;;;;;5049357;28;20029;-68
2022/01/23 09:11:38;;;;;;;61.72;23.73;;;;;;;;;;5051784;28;20106;-68
2022/01/23 09:14:07;;;;;;;65.22;23.02;;;;;;;;;;5038124;28;20117;-69
2022/01/23 09:16:43;;;;;;;63.22;23.70;;;;;;;;;;5045109;28;20049;-68
2022/01/23 09:19:10;;;;;;;61.53;22.63;;;;;;;;;;5037586;28;20445;-69
2022/01/23 09:21:37;;;;;;;62.88;23.25;;;;;;;;;;5048899;28;20425;-69
2022/01/23 09:24:04;;;;;;;55.83;21.80;;;;;;;;;;5049007;28;20056;-69
2022/01/23 09:26:30;;;;;;;63.65;26.17;;;;;;;;;;5050279;28;20033;-69
2022/01/23 09:28:59;;;;;;;69.10;26.10;;;;;;;;;;5034218;28;20065;-69
2022/01/23 09:31:48;;;;;;;57.50;23.98;;;;;;;;;;5011857;28;20033;-69
2022/01/23 09:34:11;;;;;;;61.65;23.88;;;;;;;;;;5009986;28;20400;-69
2022/01/23 09:36:37;;;;;;;57.88;22.27;;;;;;;;;;5014740;28;20033;-69
2022/01/23 09:39:04;;;;;;;54.75;22.15;;;;;;;;;;5033724;28;20034;-69
2022/01/23 09:41:32;;;;;;;56.45;22.50;;;;;;;;;;5031272;28;20105;-69
2022/01/23 09:44:00;;;;;;;55.38;23.00;;;;;;;;;;5030267;28;20113;-69
2022/01/23 09:46:25;;;;;;;55.40;21.70;;;;;;;;;;5031365;28;20079;-68
2022/01/23 09:48:52;;;;;;;61.10;22.77;;;;;;;;;;5044660;28;20040;-69
2022/01/23 09:51:20;;;;;;;61.60;22.98;;;;;;;;;;5032737;28;20029;-68
2022/01/23 09:53:46;;;;;;;57.30;21.35;;;;;;;;;;5045869;28;20033;-69
2022/01/23 09:56:14;;;;;;;56.20;21.92;;;;;;;;;;5039846;28;20065;-69
2022/01/23 09:58:40;;;;;;;59.97;22.35;;;;;;;;;;5031742;28;20063;-68
2022/01/23 10:01:06;;;;;;;60.20;22.52;;;;;;;;;;5035922;28;20116;-69
2022/01/23 10:03:31;;;;;;;52.83;22.13;;;;;;;;;;5050614;28;20071;-69
2022/01/23 10:05:57;;;;;;;53.95;22.90;;;;;;;;;;5028344;28;20030;-69
2022/01/23 10:08:29;;;;;;;55.03;21.58;;;;;;;;;;5012843;28;20446;-69
2022/01/23 10:10:56;;;;;;;58.60;22.63;;;;;;;;;;5010893;28;20034;-69
2022/01/23 10:13:24;;;;;;;53.28;21.77;;;;;;;;;;5014863;28;20038;-69
2022/01/23 10:15:51;;;;;;;59.22;22.55;;;;;;;;;;5015168;28;20046;-70
2022/01/23 10:18:18;;;;;;;50.45;20.50;;;;;;;;;;5013378;28;20053;-69
2022/01/23 10:20:46;;;;;;;46.33;19.67;;;;;;;;;;5015166;28;20108;-69
2022/01/23 10:23:12;;;;;;;44.45;20.08;;;;;;;;;;5025847;28;20183;-70
2022/01/23 10:25:41;;;;;;;43.63;19.20;;;;;;;;;;5050171;28;20034;-70
2022/01/23 10:28:08;;;;;;;45.67;19.88;;;;;;;;;;5034318;28;20065;-70
2022/01/23 10:30:44;;;;;;;45.83;20.17;;;;;;;;;;5034803;28;20126;-69
2022/01/23 10:33:29;;;;;;;47.50;20.67;;;;;;;;;;5033847;28;20132;-68
2022/01/23 10:36:03;;;;;;;41.35;19.17;;;;;;;;;;5034728;28;20037;-69
2022/01/23 10:38:31;;;;;;;42.25;19.17;;;;;;;;;;5017828;28;20530;-69
2022/01/23 10:49:52;;;;;;;45.90;19.50;;;;;;;;;;5014841;28;20088;-69
2022/01/23 10:52:47;;;;;;;43.47;18.52;;;;;;;;;;5014230;28;20621;-69
2022/01/23 10:55:12;;;;;;;42.22;18.58;;;;;;;;;;5012699;28;20503;-69
2022/01/23 10:57:46;;;;;;;40.90;18.33;;;;;;;;;;5014722;28;20038;-69
2022/01/23 11:00:36;;;;;;;40.17;17.85;;;;;;;;;;5013422;28;20046;-69
2022/01/23 11:03:21;;;;;;;41.90;17.33;;;;;;;;;;5012551;28;20037;-69
2022/01/23 11:05:48;;;;;;;36.80;16.67;;;;;;;;;;5014445;28;20412;-69
2022/01/23 11:08:25;;;;;;;34.95;17.20;;;;;;;;;;5015197;28;20037;-69
2022/01/23 11:11:01;;;;;;;37.50;17.00;;;;;;;;;;5014331;28;20038;-69
2022/01/23 11:19:30;;;;;;;38.58;16.92;;;;;;;;;;5013872;28;20084;-68
2022/01/23 11:21:59;;;;;;;38.50;17.60;;;;;;;;;;5015538;28;20432;-69
2022/01/23 11:24:41;;;;;;;34.85;16.95;;;;;;;;;;5012863;28;20080;-69
2022/01/23 11:27:08;;;;;;;35.10;16.63;;;;;;;;;;5028646;28;20382;-69
2022/01/23 11:29:34;;;;;;;33.17;15.07;;;;;;;;;;5014093;28;20530;-68
2022/01/23 11:31:59;;;;;;;32.15;15.18;;;;;;;;;;5014818;28;20061;-68
2022/01/23 11:34:27;;;;;;;32.03;14.80;;;;;;;;;;5014789;28;20033;-68
2022/01/23 11:36:53;;;;;;;32.28;15.88;;;;;;;;;;5013694;28;20033;-68
2022/01/23 11:39:42;;;;;;;32.33;15.43;;;;;;;;;;5012709;28;20525;-68
2022/01/23 11:53:49;;;;;;;29.45;14.70;;;;;;;;;;5012698;28;20042;-69
2022/01/23 11:56:46;;;;;;;32.45;14.73;;;;;;;;;;5012758;28;20113;-70
2022/01/23 11:59:24;;;;;;;30.10;14.20;;;;;;;;;;5000166;28;20041;-69
2022/01/23 12:02:09;;;;;;;27.38;13.57;;;;;;;;;;5013227;28;20030;-68
2022/01/23 12:04:35;;;;;;;30.73;13.77;;;;;;;;;;5028418;28;20412;-69
2022/01/23 12:07:12;;;;;;;30.75;14.50;;;;;;;;;;5013195;28;20036;-69
2022/01/23 12:09:41;;;;;;;27.63;13.20;;;;;;;;;;5013271;28;20542;-69
2022/01/23 12:12:26;;;;;;;29.48;14.00;;;;;;;;;;5012320;28;20025;-70
2022/01/23 12:18:21;;;;;;;28.95;13.95;;;;;;;;;;5013839;28;20099;-70
2022/01/23 12:20:49;;;;;;;29.65;14.43;;;;;;;;;;5011554;28;20033;-70
2022/01/23 12:23:17;;;;;;;27.05;13.27;;;;;;;;;;5012152;28;20096;-70
2022/01/23 12:25:47;;;;;;;30.25;14.43;;;;;;;;;;5012645;28;20523;-70
2022/01/23 12:28:14;;;;;;;31.58;14.93;;;;;;;;;;5011713;28;20026;-70
2022/01/23 12:30:42;;;;;;;27.33;14.10;;;;;;;;;;5012957;28;20033;-70
2022/01/23 12:33:13;;;;;;;32.20;15.95;;;;;;;;;;5010705;28;20041;-70
2022/01/23 12:35:42;;;;;;;31.13;16.27;;;;;;;;;;5011760;28;20087;-70
2022/01/23 12:38:13;;;;;;;30.73;14.55;;;;;;;;;;5010710;28;20038;-70
2022/01/23 12:40:47;;;;;;;32.33;14.60;;;;;;;;;;5012196;28;20030;-70
2022/01/23 12:43:18;;;;;;;28.15;13.70;;;;;;;;;;5011703;28;20120;-70
2022/01/23 12:46:01;;;;;;;32.67;15.07;;;;;;;;;;5012727;28;20095;-70
2022/01/23 12:48:26;;;;;;;30.48;16.02;;;;;;;;;;5012111;28;20346;-70
2022/01/23 12:50:54;;;;;;;31.23;14.73;;;;;;;;;;5012352;28;20473;-69
2022/01/23 12:53:20;;;;;;;26.35;13.48;;;;;;;;;;5026395;28;20048;-70
2022/01/23 12:56:10;;;;;;;30.25;14.85;;;;;;;;;;5012346;28;20468;-70
2022/01/23 12:58:37;;;;;;;31.13;15.18;;;;;;;;;;5011458;28;20052;-70
2022/01/23 13:01:08;;;;;;;30.88;14.70;;;;;;;;;;5012020;28;20084;-70
2022/01/23 13:03:36;;;;;;;26.63;14.02;;;;;;;;;;5013870;28;20368;-70
2022/01/23 13:06:06;;;;;;;30.33;15.13;;;;;;;;;;5027427;28;20045;-69
2022/01/23 13:08:36;;;;;;;30.42;13.70;;;;;;;;;;5012015;28;20037;-70
2022/01/23 13:16:33;;;;;;;26.83;14.00;;;;;;;;;;5007469;28;20050;-70
2022/01/23 13:19:47;;;;;;;26.92;13.52;;;;;;;;;;5012169;28;20029;-70
2022/01/23 13:30:22;;;;;;;26.33;12.63;;;;;;;;;;5011086;28;20125;-69
2022/01/23 13:32:50;;;;;;;25.42;13.38;;;;;;;;;;5027724;28;20116;-68
2022/01/23 13:35:18;;;;;;;25.63;12.73;;;;;;;;;;5030910;28;20041;-68
2022/01/23 13:37:47;;;;;;;26.10;13.60;;;;;;;;;;5031667;28;20035;-68
2022/01/23 13:40:24;;;;;;;25.75;13.20;;;;;;;;;;5030625;28;20476;-69
2022/01/23 13:51:44;;;;;;;23.27;12.10;;;;;;;;;;5034340;28;20114;-69
2022/01/23 13:57:36;;;;;;;26.27;12.57;;;;;;;;;;5035295;28;20026;-70
2022/01/23 14:00:03;;;;;;;27.75;13.38;;;;;;;;;;5020439;28;20072;-68
2022/01/23 14:02:37;;;;;;;24.20;12.88;;;;;;;;;;5014604;28;20487;-68
2022/01/23 14:05:02;;;;;;;27.30;13.23;;;;;;;;;;5015406;28;20399;-68
2022/01/23 14:07:29;;;;;;;24.80;13.45;;;;;;;;;;5013401;28;20034;-69
2022/01/23 14:09:56;;;;;;;25.17;13.50;;;;;;;;;;5016110;28;20067;-70
2022/01/23 14:12:24;;;;;;;24.67;12.48;;;;;;;;;;5013530;28;20034;-69
2022/01/23 14:15:05;;;;;;;24.40;12.90;;;;;;;;;;5017206;28;20041;-69
2022/01/23 14:17:35;;;;;;;25.00;13.05;;;;;;;;;;5016412;28;20610;-70
2022/01/23 14:20:13;;;;;;;25.45;13.60;;;;;;;;;;5033192;28;20112;-69
2022/01/23 14:22:43;;;;;;;25.77;12.57;;;;;;;;;;5033860;28;20368;-69
2022/01/23 14:25:14;;;;;;;26.33;13.35;;;;;;;;;;5035106;28;20123;-70
2022/01/23 14:27:43;;;;;;;25.35;14.07;;;;;;;;;;5035134;28;20494;-69
2022/01/23 14:30:17;;;;;;;26.02;12.88;;;;;;;;;;5033048;28;20399;-69
2022/01/23 14:32:51;;;;;;;26.30;13.30;;;;;;;;;;5033063;28;20056;-69
2022/01/23 14:35:21;;;;;;;24.25;13.18;;;;;;;;;;5012964;28;20033;-69
2022/01/23 14:37:49;;;;;;;25.27;13.83;;;;;;;;;;5021016;28;20029;-71
2022/01/23 14:40:24;;;;;;;26.65;14.20;;;;;;;;;;5041136;28;20443;-69
2022/01/23 14:43:16;;;;;;;24.75;13.85;;;;;;;;;;5034292;28;20025;-69
2022/01/23 14:45:45;;;;;;;27.02;14.52;;;;;;;;;;5045911;28;20171;-69
2022/01/23 14:48:14;;;;;;;27.00;14.32;;;;;;;;;;5034396;28;20325;-68
2022/01/23 14:50:51;;;;;;;28.20;14.52;;;;;;;;;;5034278;28;20030;-68
2022/01/23 14:53:19;;;;;;;27.98;14.57;;;;;;;;;;5029747;28;20037;-66
2022/01/23 14:55:48;;;;;;;28.58;15.07;;;;;;;;;;5034087;28;20029;-67
2022/01/23 14:58:19;;;;;;;27.05;14.35;;;;;;;;;;5034036;28;20037;-67
2022/01/23 15:00:45;;;;;;;29.60;14.40;;;;;;;;;;5021336;28;20034;-68
2022/01/23 15:03:10;;;;;;;29.23;15.48;;;;;;;;;;5033900;28;20037;-66
2022/01/23 15:05:38;;;;;;;27.20;14.85;;;;;;;;;;5016600;28;20475;-68
2022/01/23 15:08:07;;;;;;;30.48;15.20;;;;;;;;;;5031577;28;20036;-66
2022/01/23 15:10:33;;;;;;;29.13;15.48;;;;;;;;;;5032908;28;20044;-68
2022/01/23 15:12:58;;;;;;;30.92;15.73;;;;;;;;;;5028261;28;20030;-67
2022/01/23 15:15:25;;;;;;;27.40;15.10;;;;;;;;;;5028712;28;20553;-66
2022/01/23 15:17:50;;;;;;;29.98;16.05;;;;;;;;;;5049591;28;20525;-67
2022/01/23 15:20:17;;;;;;;26.10;15.43;;;;;;;;;;5021682;28;20037;-68
2022/01/23 15:22:43;;;;;;;27.90;15.68;;;;;;;;;;5033629;28;20426;-68
2022/01/23 15:25:12;;;;;;;29.30;15.38;;;;;;;;;;5023172;28;20029;-68
2022/01/23 15:27:38;;;;;;;29.38;16.08;;;;;;;;;;5029495;28;20123;-67
2022/01/23 15:30:09;;;;;;;31.70;15.55;;;;;;;;;;5038823;28;20113;-67
2022/01/23 15:32:35;;;;;;;30.17;14.77;;;;;;;;;;5030609;28;20045;-67
2022/01/23 15:35:03;;;;;;;27.55;14.77;;;;;;;;;;5041217;28;20040;-67
2022/01/23 15:37:29;;;;;;;28.75;15.05;;;;;;;;;;5051837;28;20571;-68
2022/01/23 15:39:55;;;;;;;27.90;15.13;;;;;;;;;;5053207;28;20125;-68
2022/01/23 15:42:20;;;;;;;25.65;14.55;;;;;;;;;;5024903;28;20092;-68
2022/01/23 15:44:46;;;;;;;27.90;15.15;;;;;;;;;;5013274;28;20053;-69
2022/01/23 15:47:11;;;;;;;30.27;15.38;;;;;;;;;;5031385;28;20033;-68
2022/01/23 15:49:37;;;;;;;31.92;15.80;;;;;;;;;;5034178;28;20632;-68
2022/01/23 15:52:03;;;;;;;29.55;15.20;;;;;;;;;;5041936;28;20187;-68
2022/01/23 15:54:29;;;;;;;30.23;14.80;;;;;;;;;;5020429;28;20045;-68
2022/01/23 15:56:55;;;;;;;30.00;15.73;;;;;;;;;;5013628;28;20079;-68
2022/01/23 15:59:21;;;;;;;29.02;16.15;;;;;;;;;;5012464;28;20523;-69
2022/01/23 16:01:49;;;;;;;29.38;14.85;;;;;;;;;;5013453;28;20030;-69
2022/01/23 16:04:16;;;;;;;32.33;15.07;;;;;;;;;;5037136;28;20056;-68
2022/01/23 16:06:41;;;;;;;32.22;15.40;;;;;;;;;;5051946;28;20029;-69
2022/01/23 16:09:07;;;;;;;30.00;15.82;;;;;;;;;;5035199;28;20032;-68
2022/01/23 16:11:33;;;;;;;32.63;15.60;;;;;;;;;;5030999;28;20442;-68
2022/01/23 16:13:58;;;;;;;34.42;15.75;;;;;;;;;;5053110;28;20025;-68
2022/01/23 16:16:23;;;;;;;28.98;14.60;;;;;;;;;;5043032;28;20039;-69
2022/01/23 16:18:49;;;;;;;30.88;15.63;;;;;;;;;;5032827;28;20025;-67
2022/01/23 16:21:14;;;;;;;33.40;16.27;;;;;;;;;;5032438;28;20464;-67
2022/01/23 16:23:41;;;;;;;32.38;15.18;;;;;;;;;;5025473;28;20018;-67
2022/01/23 16:26:06;;;;;;;30.80;16.08;;;;;;;;;;5019780;28;20048;-68
2022/01/23 16:28:32;;;;;;;31.50;15.48;;;;;;;;;;5031774;28;20436;-67
2022/01/23 16:30:59;;;;;;;33.85;16.05;;;;;;;;;;5028618;28;20022;-69
2022/01/23 16:33:25;;;;;;;30.35;15.82;;;;;;;;;;5010540;28;20025;-68
2022/01/23 16:35:51;;;;;;;30.13;15.38;;;;;;;;;;5026558;28;20115;-69
2022/01/23 16:38:20;;;;;;;33.05;16.13;;;;;;;;;;5026623;28;20037;-68
2022/01/23 16:40:47;;;;;;;35.28;16.50;;;;;;;;;;5014286;28;20064;-69
2022/01/23 16:43:16;;;;;;;34.30;16.73;;;;;;;;;;5032368;28;20483;-68
2022/01/23 16:45:42;;;;;;;33.05;16.67;;;;;;;;;;5030422;28;20092;-67
2022/01/23 16:48:07;;;;;;;34.17;15.32;;;;;;;;;;5032013;28;20497;-68
2022/01/23 16:50:35;;;;;;;32.67;16.30;;;;;;;;;;5026106;28;20030;-68
2022/01/23 16:53:01;;;;;;;32.00;16.02;;;;;;;;;;5039613;28;20029;-67
2022/01/23 16:55:26;;;;;;;32.95;16.13;;;;;;;;;;5046536;28;20528;-67
2022/01/23 16:57:55;;;;;;;31.90;15.43;;;;;;;;;;5027414;28;20041;-67
2022/01/23 17:00:21;;;;;;;33.13;16.13;;;;;;;;;;5022352;28;20040;-68
2022/01/23 17:02:47;;;;;;;35.28;16.98;;;;;;;;;;5032001;28;20033;-68
2022/01/23 17:05:12;;;;;;;35.55;17.83;;;;;;;;;;5028961;28;20033;-69
2022/01/23 17:07:38;;;;;;;32.72;17.75;;;;;;;;;;5034526;28;20033;-67
2022/01/23 17:10:06;;;;;;;34.40;17.30;;;;;;;;;;5030787;28;20397;-68
2022/01/23 17:12:32;;;;;;;36.38;17.40;;;;;;;;;;5013115;28;20037;-68
2022/01/23 17:14:58;;;;;;;38.92;20.00;;;;;;;;;;5031713;28;20487;-69
2022/01/23 17:17:24;;;;;;;35.92;17.88;;;;;;;;;;5049009;28;20036;-67
2022/01/23 17:19:49;;;;;;;38.33;18.88;;;;;;;;;;5051823;28;20419;-68
2022/01/23 17:22:15;;;;;;;39.40;17.65;;;;;;;;;;5050252;28;20039;-69
2022/01/23 17:24:40;;;;;;;38.60;18.15;;;;;;;;;;5050248;28;20593;-68
2022/01/23 17:27:06;;;;;;;35.85;17.33;;;;;;;;;;5033802;28;20087;-68
2022/01/23 17:29:32;;;;;;;37.10;17.13;;;;;;;;;;5029728;28;20033;-69
2022/01/23 17:31:57;;;;;;;36.40;17.58;;;;;;;;;;5032901;28;20041;-70
2022/01/23 17:34:25;;;;;;;37.92;18.38;;;;;;;;;;5033314;28;20034;-69
2022/01/23 17:36:51;;;;;;;39.20;18.75;;;;;;;;;;5050560;28;20094;-68
2022/01/23 17:39:17;;;;;;;40.83;19.35;;;;;;;;;;5043153;28;20452;-70
2022/01/23 17:41:42;;;;;;;42.08;19.20;;;;;;;;;;5027321;28;20109;-70
2022/01/23 17:44:09;;;;;;;38.92;19.17;;;;;;;;;;5025916;28;20034;-69
2022/01/23 17:46:37;;;;;;;37.67;18.70;;;;;;;;;;5050470;28;20483;-69
2022/01/23 17:49:05;;;;;;;37.47;18.67;;;;;;;;;;5021824;28;20042;-70
2022/01/23 17:51:32;;;;;;;37.70;18.48;;;;;;;;;;5026230;28;20036;-69